Time;durP1;ratioP1;P1;durP2;ratioP2;P2;SDS_P1;SDS_P2;PMS_P1;PMS_P2;Temp;Humidity;BMP_temperature;BMP_pressure;BME280_temperature;BME280_humidity;BME280_pressure;Samples;Min_cycle;Max_cycle;Signal;HPM_P1;HPM_P2
2022/11/12 00:01:12;;;;;;;29.77;19.90;;;;;;;12.21;90.23;102073.06;5089567;28;20402;-77
2022/11/12 00:03:37;;;;;;;29.17;20.25;;;;;;;12.16;90.37;102059.00;5090098;28;20380;-77
2022/11/12 00:06:03;;;;;;;22.67;17.55;;;;;;;12.18;90.69;102073.25;5089714;28;20189;-79
2022/11/12 00:08:28;;;;;;;29.55;19.88;;;;;;;12.37;90.35;102095.38;5089291;28;20035;-76
2022/11/12 00:10:54;;;;;;;38.55;20.45;;;;;;;12.44;90.74;102083.22;5089258;28;20024;-77
2022/11/12 00:13:19;;;;;;;29.23;19.13;;;;;;;12.40;90.22;102089.78;5089272;28;20020;-76
2022/11/12 00:15:45;;;;;;;27.42;19.35;;;;;;;12.43;90.21;102095.84;5089683;28;20035;-76
2022/11/12 00:18:11;;;;;;;32.00;19.25;;;;;;;12.38;90.10;102080.94;5089492;28;20110;-77
2022/11/12 00:20:36;;;;;;;28.35;19.05;;;;;;;12.42;90.26;102077.91;5089233;28;20158;-76
2022/11/12 00:23:02;;;;;;;32.65;20.23;;;;;;;12.31;90.76;102068.78;5098421;28;20031;-76
2022/11/12 00:25:28;;;;;;;29.55;18.88;;;;;;;12.39;90.75;102079.94;5103146;28;20034;-77
2022/11/12 00:28:00;;;;;;;35.65;20.08;;;;;;;12.37;90.69;102076.47;5101587;28;20107;-77
2022/11/12 00:30:25;;;;;;;31.40;19.73;;;;;;;12.40;90.73;102074.47;5088999;28;20808;-76
2022/11/12 00:32:51;;;;;;;31.30;20.00;;;;;;;12.21;90.66;102051.47;5089394;28;20035;-75
2022/11/12 00:35:16;;;;;;;32.15;20.88;;;;;;;12.23;90.62;102065.75;5088860;28;20055;-77
2022/11/12 00:37:41;;;;;;;30.50;19.83;;;;;;;12.33;90.08;102073.13;5053234;28;20032;-77
2022/11/12 00:40:07;;;;;;;28.77;19.40;;;;;;;12.27;89.81;102053.75;5088651;28;20070;-76
2022/11/12 00:42:33;;;;;;;25.98;18.58;;;;;;;12.39;90.06;102077.25;5088915;28;20024;-76
2022/11/12 00:44:58;;;;;;;31.67;19.63;;;;;;;12.40;90.05;102070.88;5088912;28;20097;-77
2022/11/12 00:47:24;;;;;;;29.83;18.90;;;;;;;12.36;89.96;102077.44;5088772;28;20505;-76
2022/11/12 00:49:52;;;;;;;27.25;18.80;;;;;;;12.36;90.22;102072.03;5089058;28;20024;-77
2022/11/12 00:52:17;;;;;;;27.17;18.05;;;;;;;12.34;89.82;102087.47;5088854;28;20115;-75
2022/11/12 00:54:43;;;;;;;29.58;18.45;;;;;;;12.32;89.67;102070.53;5088095;28;20512;-77
2022/11/12 00:57:08;;;;;;;28.70;18.60;;;;;;;12.33;89.61;102072.25;5088554;28;20028;-77
2022/11/12 00:59:34;;;;;;;27.77;18.30;;;;;;;12.38;90.01;102070.13;5070646;28;20071;-77
2022/11/12 01:01:59;;;;;;;30.58;19.83;;;;;;;12.36;89.66;102063.94;5088706;28;20024;-77
2022/11/12 01:04:25;;;;;;;32.47;21.25;;;;;;;12.35;89.49;102070.34;5089613;28;20024;-76
2022/11/12 01:06:50;;;;;;;35.35;20.73;;;;;;;12.36;89.61;102074.75;5088015;28;20035;-77
2022/11/12 01:09:15;;;;;;;31.73;21.13;;;;;;;12.21;89.41;102040.69;5088702;28;20028;-76
2022/11/12 01:11:41;;;;;;;30.90;20.38;;;;;;;12.38;89.55;102080.94;5088420;28;20483;-76
2022/11/12 01:14:08;;;;;;;29.75;19.73;;;;;;;12.37;89.60;102084.59;5089018;28;20043;-76
2022/11/12 01:16:36;;;;;;;30.88;19.60;;;;;;;12.32;90.00;102087.56;5088489;28;20406;-76
2022/11/12 01:19:04;;;;;;;32.03;20.95;;;;;;;12.28;89.70;102090.56;5088247;28;20475;-77
2022/11/12 01:21:31;;;;;;;31.88;19.55;;;;;;;12.28;90.11;102090.56;5088813;28;20093;-76
2022/11/12 01:23:59;;;;;;;32.80;20.40;;;;;;;12.27;90.18;102089.72;5088748;28;20032;-76
2022/11/12 01:26:27;;;;;;;34.50;20.23;;;;;;;12.04;90.61;102059.81;5088655;28;21119;-76
2022/11/12 01:28:53;;;;;;;30.75;20.15;;;;;;;12.25;90.23;102090.78;5088544;28;20036;-76
2022/11/12 01:31:24;;;;;;;41.03;23.55;;;;;;;12.25;90.66;102082.69;5092116;28;20073;-76
2022/11/12 01:33:58;;;;;;;35.00;20.55;;;;;;;12.32;90.23;102081.34;5102063;28;20032;-76
2022/11/12 01:36:26;;;;;;;33.92;19.50;;;;;;;12.31;90.49;102075.06;5099638;28;20099;-76
2022/11/12 01:38:52;;;;;;;36.35;19.75;;;;;;;12.25;90.49;102077.28;5089184;28;20032;-77
2022/11/12 01:41:22;;;;;;;30.48;20.20;;;;;;;12.20;90.53;102052.47;5088382;28;20081;-76
2022/11/12 01:43:47;;;;;;;24.65;16.70;;;;;;;12.28;90.15;102085.19;5088419;28;20032;-76
2022/11/12 01:46:20;;;;;;;28.23;17.45;;;;;;;12.25;90.18;102074.59;5088471;28;20391;-76
2022/11/12 01:48:51;;;;;;;30.50;18.67;;;;;;;12.27;90.37;102078.91;5087812;28;20028;-77
2022/11/12 01:51:20;;;;;;;31.02;19.10;;;;;;;12.29;90.31;102081.53;5087736;28;20716;-77
2022/11/12 01:53:50;;;;;;;30.25;17.83;;;;;;;12.30;90.13;102086.81;5088657;28;20020;-76
2022/11/12 01:56:17;;;;;;;28.25;18.08;;;;;;;12.29;90.61;102076.97;5088210;28;20569;-76
2022/11/12 01:58:45;;;;;;;26.98;17.42;;;;;;;12.33;90.67;102086.59;5088321;28;20020;-76
2022/11/12 02:01:10;;;;;;;27.08;17.70;;;;;;;12.28;90.52;102069.00;5088225;28;20032;-76
2022/11/12 02:03:35;;;;;;;26.73;17.67;;;;;;;12.26;91.26;102057.44;5088219;28;20031;-77
2022/11/12 02:06:08;;;;;;;30.98;18.33;;;;;;;12.24;90.94;102062.94;5090159;28;20032;-77
2022/11/12 02:08:36;;;;;;;27.70;17.75;;;;;;;12.19;91.29;102067.78;5091268;28;20107;-77
2022/11/12 02:11:17;;;;;;;29.42;17.80;;;;;;;12.18;92.06;102062.47;5091905;28;20043;-76
2022/11/12 02:13:56;;;;;;;31.52;17.48;;;;;;;12.18;92.82;102067.84;5092098;28;20035;-77
2022/11/12 02:16:29;;;;;;;31.80;17.85;;;;;;;12.20;92.17;102076.72;5091628;28;20169;-76
2022/11/12 02:18:54;;;;;;;;;;;;;;;12.15;92.27;102079.72;5091695;28;20028;-76
2022/11/12 02:21:21;;;;;;;30.33;18.73;;;;;;;12.11;93.12;102088.97;5091539;28;20565;-76
2022/11/12 02:23:46;;;;;;;30.15;19.88;;;;;;;12.12;94.18;102068.25;5091656;28;20563;-76
2022/11/12 02:26:12;;;;;;;26.38;17.90;;;;;;;12.10;93.99;102067.50;5091386;28;20059;-76
2022/11/12 02:28:37;;;;;;;37.25;19.25;;;;;;;12.07;94.08;102073.09;5072913;28;20475;-76
2022/11/12 02:31:03;;;;;;;28.55;19.58;;;;;;;12.11;94.21;102077.34;5091185;28;20034;-75
2022/11/12 02:33:28;;;;;;;28.27;17.50;;;;;;;12.09;94.44;102069.31;5091743;28;20043;-76
2022/11/12 02:35:53;;;;;;;28.75;18.45;;;;;;;12.13;93.82;102068.16;5091372;28;20056;-76
2022/11/12 02:38:19;;;;;;;34.83;18.92;;;;;;;12.12;93.87;102070.97;5090842;28;20051;-77
2022/11/12 02:40:44;;;;;;;31.73;19.58;;;;;;;12.20;93.61;102082.13;5095541;28;20498;-76
2022/11/12 02:43:10;;;;;;;29.60;20.02;;;;;;;12.11;93.11;102085.44;5104845;28;20093;-76
2022/11/12 02:45:35;;;;;;;34.63;21.42;;;;;;;12.06;92.87;102091.09;5104498;28;20088;-75
2022/11/12 02:48:01;;;;;;;33.65;21.08;;;;;;;12.05;93.48;102078.56;5092623;28;20544;-76
2022/11/12 02:50:26;;;;;;;33.45;20.17;;;;;;;12.08;93.72;102085.63;5090647;28;20036;-76
2022/11/12 02:52:51;;;;;;;33.33;21.92;;;;;;;12.04;93.69;102093.03;5090895;28;20024;-75
2022/11/12 02:55:17;;;;;;;43.30;23.15;;;;;;;12.01;93.89;102098.63;5090909;28;20084;-76
2022/11/12 02:57:42;;;;;;;43.13;24.98;;;;;;;12.02;93.69;102094.13;5091138;28;20031;-76
2022/11/12 03:00:10;;;;;;;41.67;22.20;;;;;;;11.97;93.64;102081.78;5090268;28;20479;-76
2022/11/12 03:02:41;;;;;;;31.23;21.30;;;;;;;11.98;93.99;102078.13;5091100;28;20024;-76
2022/11/12 03:05:10;;;;;;;38.65;23.00;;;;;;;11.90;94.10;102066.94;5090579;28;20032;-75
2022/11/12 03:07:36;;;;;;;36.72;22.80;;;;;;;12.10;93.97;102097.16;5090925;28;20024;-77
2022/11/12 03:10:01;;;;;;;33.45;21.73;;;;;;;12.09;93.24;102092.72;5090644;28;20040;-77
2022/11/12 03:12:30;;;;;;;35.88;20.42;;;;;;;12.06;92.71;102096.50;5072526;28;20490;-77
2022/11/12 03:14:55;;;;;;;35.97;21.73;;;;;;;11.98;92.54;102074.56;5090601;28;20474;-77
2022/11/12 03:17:21;;;;;;;33.72;21.05;;;;;;;12.13;92.52;102096.97;5072123;28;20030;-75
2022/11/12 03:19:46;;;;;;;29.50;19.23;;;;;;;12.04;92.56;102076.00;5089336;28;20035;-75
2022/11/12 03:22:11;;;;;;;28.02;19.73;;;;;;;12.20;92.16;102095.63;5090681;28;20092;-76
2022/11/12 03:24:37;;;;;;;27.63;18.00;;;;;;;12.15;92.12;102116.59;5090701;28;20658;-76
2022/11/12 03:27:02;;;;;;;29.02;17.73;;;;;;;12.13;91.36;102110.47;5090177;28;20051;-75
2022/11/12 03:29:28;;;;;;;29.55;17.85;;;;;;;12.10;91.24;102097.16;5089623;28;20031;-76
2022/11/12 03:31:53;;;;;;;30.08;17.73;;;;;;;11.95;91.96;102083.72;5090346;28;20056;-76
2022/11/12 03:34:18;;;;;;;24.27;16.75;;;;;;;12.07;92.13;102109.03;5090094;28;20481;-76
2022/11/12 03:36:44;;;;;;;30.02;18.05;;;;;;;12.09;92.34;102115.19;5090119;28;20084;-76
2022/11/12 03:39:09;;;;;;;30.08;17.92;;;;;;;12.12;92.86;102103.31;5089875;28;20076;-76
2022/11/12 03:41:35;;;;;;;27.88;18.95;;;;;;;12.15;92.37;102111.22;5090540;28;20023;-75
2022/11/12 03:44:00;;;;;;;30.33;17.92;;;;;;;12.15;92.08;102095.91;5089877;28;20042;-76
2022/11/12 03:46:25;;;;;;;26.95;17.75;;;;;;;12.18;91.69;102113.72;5090087;28;20058;-76
2022/11/12 03:48:52;;;;;;;27.10;17.55;;;;;;;12.22;91.64;102105.34;5089643;28;20096;-76
2022/11/12 03:51:20;;;;;;;25.92;17.10;;;;;;;12.14;90.81;102099.56;5096251;28;20039;-77
2022/11/12 03:53:45;;;;;;;29.88;19.45;;;;;;;12.20;91.39;102101.00;5097114;28;20115;-75
2022/11/12 03:56:10;;;;;;;33.65;17.85;;;;;;;12.09;90.65;102084.63;5093155;28;20172;-75
2022/11/12 03:58:36;;;;;;;23.58;15.45;;;;;;;12.13;90.16;102107.75;5089719;28;20024;-75
2022/11/12 04:01:01;;;;;;;24.90;16.90;;;;;;;12.14;90.49;102117.59;5071446;28;20017;-76
2022/11/12 04:03:27;;;;;;;26.23;17.13;;;;;;;12.14;90.18;102126.53;5089644;28;20031;-76
2022/11/12 04:08:36;;;;;;;27.58;16.77;;;;;;;12.12;90.34;102139.25;5088910;28;20070;-75
2022/11/12 04:11:11;;;;;;;22.77;15.98;;;;;;;12.17;90.31;102131.72;5050847;28;20064;-75
2022/11/12 04:13:38;;;;;;;25.58;17.35;;;;;;;12.16;90.25;102132.72;5091611;28;20031;-77
2022/11/12 04:21:49;;;;;;;26.65;16.73;;;;;;;12.12;90.22;102127.59;5107462;28;20124;-78
2022/11/12 04:27:20;;;;;;;32.13;18.90;;;;;;;12.01;90.09;102120.22;5110106;28;20038;-78
2022/11/12 04:32:33;;;;;;;29.25;18.58;;;;;;;12.00;90.94;102138.22;5069363;28;20083;-78
2022/11/12 04:34:59;;;;;;;33.10;19.88;;;;;;;11.86;90.83;102119.31;5068971;28;20057;-78
2022/11/12 04:37:27;;;;;;;33.20;19.58;;;;;;;12.04;90.91;102146.09;5068830;28;20044;-78
2022/11/12 04:39:53;;;;;;;28.98;17.73;;;;;;;12.07;90.80;102143.22;5087302;28;20451;-77
2022/11/12 04:45:09;;;;;;;27.98;17.95;;;;;;;12.09;90.63;102152.94;5089405;28;20418;-78
2022/11/12 04:47:40;;;;;;;31.33;19.80;;;;;;;12.08;91.15;102144.97;5089072;28;20466;-79
2022/11/12 04:50:12;;;;;;;33.53;21.85;;;;;;;12.13;91.24;102151.78;5072185;28;21019;-77
2022/11/12 04:52:37;;;;;;;30.40;18.42;;;;;;;12.19;90.41;102146.00;5109444;28;20026;-77
2022/11/12 04:55:03;;;;;;;31.63;19.48;;;;;;;12.13;89.87;102141.00;5109724;28;20036;-78
2022/11/12 04:57:29;;;;;;;36.25;21.13;;;;;;;12.25;90.24;102160.91;5109678;28;20106;-77
2022/11/12 04:59:54;;;;;;;30.05;19.38;;;;;;;12.28;90.54;102158.91;5109165;28;20028;-77
2022/11/12 05:02:20;;;;;;;26.70;18.45;;;;;;;12.26;90.43;102149.19;5119042;28;20038;-77
2022/11/12 05:04:45;;;;;;;34.80;20.15;;;;;;;12.31;90.48;102144.34;5114546;28;20024;-77
2022/11/12 05:07:11;;;;;;;29.08;18.65;;;;;;;12.36;90.35;102156.56;5108953;28;20022;-76
2022/11/12 05:09:37;;;;;;;25.38;18.33;;;;;;;12.36;90.28;102159.25;5100751;28;20403;-76
2022/11/12 05:12:02;;;;;;;29.55;18.85;;;;;;;12.36;90.46;102155.69;5103651;28;20022;-76
2022/11/12 05:14:29;;;;;;;26.60;17.92;;;;;;;12.31;90.79;102161.41;5096795;28;20460;-80
2022/11/12 05:16:55;;;;;;;31.60;18.92;;;;;;;12.19;90.83;102128.94;5105127;28;20031;-75
2022/11/12 05:19:20;;;;;;;30.67;20.58;;;;;;;12.37;90.23;102165.53;5106558;28;20039;-74
2022/11/12 05:22:04;;;;;;;35.10;19.15;;;;;;;12.43;90.45;102171.41;5097259;28;20487;-75
2022/11/12 05:24:33;;;;;;;27.90;18.92;;;;;;;12.41;90.23;102165.25;5101925;28;20035;-73
2022/11/12 05:26:59;;;;;;;29.00;18.67;;;;;;;12.43;89.91;102173.22;5080638;28;20037;-75
2022/11/12 05:29:24;;;;;;;34.22;19.92;;;;;;;12.41;90.48;102177.88;5099024;28;20030;-74
2022/11/12 05:31:50;;;;;;;28.52;19.40;;;;;;;12.41;90.11;102156.28;5108992;28;20027;-75
2022/11/12 05:34:15;;;;;;;30.70;19.38;;;;;;;12.55;90.10;102186.81;5108082;28;20103;-73
2022/11/12 05:36:41;;;;;;;23.98;17.00;;;;;;;12.65;89.37;102183.50;5098579;28;20028;-75
2022/11/12 05:39:06;;;;;;;29.35;18.38;;;;;;;12.68;89.49;102184.16;5099657;28;20031;-76
2022/11/12 05:41:32;;;;;;;28.30;17.63;;;;;;;12.65;89.41;102187.06;5092174;28;20020;-75
2022/11/12 05:43:57;;;;;;;19.98;15.48;;;;;;;12.68;89.37;102177.91;5092606;28;20460;-75
2022/11/12 05:46:23;;;;;;;26.45;15.65;;;;;;;12.74;89.60;102197.28;5092376;28;20044;-75
2022/11/12 05:48:48;;;;;;;27.50;16.85;;;;;;;12.66;89.30;102175.28;5092464;28;20097;-75
2022/11/12 05:51:14;;;;;;;18.85;14.02;;;;;;;12.75;89.36;102198.97;5092178;28;20047;-75
2022/11/12 05:53:41;;;;;;;21.08;14.75;;;;;;;12.78;89.64;102214.97;5091855;28;20036;-74
2022/11/12 05:56:07;;;;;;;29.58;14.32;;;;;;;12.79;89.26;102214.03;5091725;28;20024;-73
2022/11/12 05:58:34;;;;;;;22.00;13.90;;;;;;;12.59;88.90;102189.31;5091772;28;20028;-75
2022/11/12 06:01:01;;;;;;;35.35;21.05;;;;;;;12.76;89.63;102216.91;5092347;28;20028;-75
2022/11/12 06:03:26;;;;;;;22.08;15.13;;;;;;;12.75;89.46;102225.97;5091961;28;20122;-75
2022/11/12 06:05:52;;;;;;;20.55;13.88;;;;;;;12.78;89.48;102219.53;5091687;28;20024;-74
2022/11/12 06:08:18;;;;;;;28.30;14.10;;;;;;;12.82;89.26;102224.63;5093590;28;20028;-74
2022/11/12 06:10:53;;;;;;;21.35;14.52;;;;;;;12.66;88.76;102194.19;5095298;28;20713;-74
2022/11/12 06:13:21;;;;;;;25.73;16.60;;;;;;;12.87;89.30;102235.13;5095103;28;20375;-74
2022/11/12 06:15:46;;;;;;;19.75;14.45;;;;;;;12.89;89.14;102223.25;5091726;28;20035;-74
2022/11/12 06:18:12;;;;;;;36.50;24.20;;;;;;;12.93;89.17;102218.53;5091721;28;20695;-74
2022/11/12 06:20:38;;;;;;;24.83;17.23;;;;;;;13.01;89.35;102233.25;5091533;28;20024;-74
2022/11/12 06:23:03;;;;;;;23.08;15.50;;;;;;;13.04;89.24;102214.16;5091662;28;20027;-73
2022/11/12 06:25:29;;;;;;;24.25;15.93;;;;;;;12.94;89.21;102199.50;5090890;28;20051;-74
2022/11/12 06:27:54;;;;;;;24.58;13.40;;;;;;;13.14;88.72;102213.56;5091147;28;20035;-75
2022/11/12 06:30:20;;;;;;;27.27;16.77;;;;;;;13.21;88.53;102217.59;5091372;28;20034;-76
2022/11/12 06:32:49;;;;;;;23.35;14.98;;;;;;;12.95;87.90;102167.97;5091669;28;20047;-75
2022/11/12 06:35:16;;;;;;;22.75;13.45;;;;;;;13.21;87.44;102225.69;5091409;28;20040;-74
2022/11/12 06:37:43;;;;;;;22.38;13.48;;;;;;;13.00;87.83;102192.81;5088501;28;20112;-78
2022/11/12 06:40:09;;;;;;;17.85;12.82;;;;;;;13.19;88.21;102220.38;5091613;28;20563;-76
2022/11/12 06:42:34;;;;;;;19.05;10.85;;;;;;;12.89;88.39;102174.66;5091421;28;20031;-75
2022/11/12 06:45:00;;;;;;;25.67;11.43;;;;;;;13.17;88.32;102226.88;5091227;28;20028;-76
2022/11/12 06:47:25;;;;;;;22.02;13.40;;;;;;;13.22;88.05;102235.53;5090749;28;20019;-74
2022/11/12 06:49:51;;;;;;;18.50;11.52;;;;;;;13.22;88.08;102246.31;5090825;28;20032;-75
2022/11/12 06:52:17;;;;;;;18.67;13.00;;;;;;;13.23;88.43;102238.13;5090494;28;20032;-75
2022/11/12 06:54:43;;;;;;;19.33;14.05;;;;;;;13.21;88.14;102239.22;5090749;28;20035;-74
2022/11/12 06:57:08;;;;;;;22.63;14.70;;;;;;;13.21;88.64;102248.16;5090201;28;20089;-76
2022/11/12 06:59:34;;;;;;;24.63;15.00;;;;;;;13.28;88.45;102248.63;5054542;28;20040;-76
2022/11/12 07:01:59;;;;;;;20.77;14.75;;;;;;;13.29;88.22;102247.66;5090818;28;20039;-75
2022/11/12 07:04:25;;;;;;;25.75;15.85;;;;;;;13.20;88.84;102238.34;5090797;28;20027;-74
2022/11/12 07:06:50;;;;;;;22.35;15.80;;;;;;;13.27;89.24;102244.22;5090600;28;20039;-75
2022/11/12 07:09:16;;;;;;;37.80;14.73;;;;;;;13.29;89.72;102247.66;5090667;28;20032;-75
2022/11/12 07:11:41;;;;;;;22.20;14.77;;;;;;;13.25;89.53;102241.59;5090372;28;20035;-75
2022/11/12 07:14:07;;;;;;;22.58;15.98;;;;;;;13.28;90.01;102235.09;5090794;28;20103;-74
2022/11/12 07:16:33;;;;;;;20.00;14.35;;;;;;;13.33;89.89;102249.19;5094763;28;20139;-75
2022/11/12 07:18:59;;;;;;;23.33;15.02;;;;;;;13.35;90.06;102241.84;5097807;28;20039;-75
2022/11/12 07:21:24;;;;;;;23.55;16.08;;;;;;;13.35;90.31;102242.72;5097335;28;20482;-74
2022/11/12 07:23:50;;;;;;;44.78;24.40;;;;;;;13.33;90.56;102243.78;5090461;28;20036;-75
2022/11/12 07:26:24;;;;;;;19.58;14.15;;;;;;;13.38;90.38;102247.91;5090452;28;20031;-76
2022/11/12 07:28:51;;;;;;;15.85;12.10;;;;;;;13.37;90.82;102239.91;5090332;28;20032;-76
2022/11/12 07:31:18;;;;;;;25.27;12.25;;;;;;;13.31;91.55;102253.81;5089955;28;20519;-76
2022/11/12 07:33:44;;;;;;;24.05;14.18;;;;;;;13.35;91.98;102247.25;5090599;28;20032;-76
2022/11/12 07:36:12;;;;;;;19.42;13.95;;;;;;;13.23;92.49;102250.78;5090682;28;20078;-76
2022/11/12 07:38:39;;;;;;;17.40;12.82;;;;;;;13.26;92.97;102258.69;5089889;28;20352;-75
2022/11/12 07:41:06;;;;;;;24.15;15.52;;;;;;;13.21;93.68;102260.84;5090300;28;20115;-76
2022/11/12 07:43:33;;;;;;;22.65;15.52;;;;;;;13.25;93.71;102257.81;5090294;28;20024;-79
2022/11/12 07:46:00;;;;;;;23.65;16.50;;;;;;;13.24;93.76;102249.81;5089492;28;20506;-77
2022/11/12 07:48:28;;;;;;;41.97;27.92;;;;;;;13.26;94.43;102261.38;5089901;28;20510;-75
2022/11/12 07:51:01;;;;;;;26.02;15.32;;;;;;;13.26;94.37;102247.88;5089984;28;20028;-75
2022/11/12 07:53:27;;;;;;;32.42;17.40;;;;;;;13.17;94.05;102248.47;5089448;28;20020;-75
2022/11/12 07:55:54;;;;;;;28.83;15.93;;;;;;;12.99;94.39;102224.41;5089307;28;20036;-78
2022/11/12 07:58:20;;;;;;;20.20;14.43;;;;;;;13.22;94.56;102246.31;5071591;28;20024;-75
2022/11/12 08:00:45;;;;;;;22.60;13.63;;;;;;;13.20;94.76;102253.69;5089237;28;20051;-75
2022/11/12 08:03:11;;;;;;;17.58;12.40;;;;;;;13.18;95.46;102252.94;5036201;28;20490;-75
2022/11/12 08:05:36;;;;;;;23.40;11.77;;;;;;;13.26;95.19;102258.69;5089339;28;20454;-75
2022/11/12 08:08:02;;;;;;;18.63;12.38;;;;;;;13.27;94.84;102260.41;5089609;28;20020;-75
2022/11/12 08:10:27;;;;;;;20.77;12.98;;;;;;;13.26;95.11;102264.09;5090038;28;20097;-75
2022/11/12 08:12:55;;;;;;;18.58;13.25;;;;;;;13.27;95.46;102263.97;5090354;28;20101;-75
2022/11/12 08:15:21;;;;;;;17.65;12.70;;;;;;;13.34;95.18;102259.91;5091756;28;20024;-75
2022/11/12 08:17:46;;;;;;;21.98;13.45;;;;;;;13.36;94.45;102270.63;5072573;28;20039;-75
2022/11/12 08:20:12;;;;;;;26.15;15.30;;;;;;;13.46;94.91;102266.31;5090363;28;20024;-76
2022/11/12 08:22:37;;;;;;;18.88;13.20;;;;;;;13.54;94.81;102280.19;5089781;28;20016;-75
2022/11/12 08:25:03;;;;;;;23.48;13.55;;;;;;;13.58;93.93;102269.03;5095904;28;20028;-75
2022/11/12 08:27:28;;;;;;;20.55;15.88;;;;;;;13.55;94.05;102242.22;5100616;28;20020;-75
2022/11/12 08:29:54;;;;;;;21.52;14.40;;;;;;;13.66;93.46;102257.72;5096887;28;20035;-74
2022/11/12 08:32:19;;;;;;;36.45;21.55;;;;;;;13.85;92.70;102274.41;5089771;28;20040;-76
2022/11/12 08:34:45;;;;;;;30.73;19.52;;;;;;;13.76;92.04;102253.41;5070837;28;20058;-74
2022/11/12 08:37:12;;;;;;;29.30;19.30;;;;;;;14.00;91.68;102283.31;5089599;28;20073;-75
2022/11/12 08:39:37;;;;;;;23.38;14.38;;;;;;;14.06;90.81;102274.78;5089472;28;20483;-77
2022/11/12 08:42:03;;;;;;;19.35;13.70;;;;;;;14.10;90.48;102273.56;5071872;28;20030;-76
2022/11/12 08:44:28;;;;;;;20.85;13.75;;;;;;;14.17;90.12;102280.28;5090407;28;20024;-75
2022/11/12 08:46:54;;;;;;;17.20;11.52;;;;;;;14.19;89.80;102290.03;5090390;28;20024;-76
2022/11/12 08:49:19;;;;;;;21.40;12.75;;;;;;;14.25;88.73;102296.00;5090138;28;20040;-75
2022/11/12 08:51:45;;;;;;;21.00;13.30;;;;;;;14.21;88.10;102292.63;5088766;28;20024;-80
2022/11/12 08:54:10;;;;;;;21.38;13.50;;;;;;;14.19;88.82;102283.75;5070656;28;20051;-74
2022/11/12 08:56:35;;;;;;;18.35;10.93;;;;;;;14.33;88.59;102285.53;5088499;28;20028;-75
2022/11/12 08:59:01;;;;;;;19.25;12.52;;;;;;;14.29;88.28;102265.00;5089086;28;20390;-75
2022/11/12 09:01:26;;;;;;;17.70;11.68;;;;;;;14.52;87.89;102277.84;5089287;28;20044;-73
2022/11/12 09:03:52;;;;;;;17.20;11.25;;;;;;;14.47;86.79;102264.59;5089343;28;20027;-74
2022/11/12 09:06:17;;;;;;;16.63;9.57;;;;;;;14.59;86.96;102284.50;5089110;28;20054;-75
2022/11/12 09:08:43;;;;;;;21.15;12.18;;;;;;;14.70;87.20;102276.50;5088671;28;20028;-76
2022/11/12 09:11:08;;;;;;;21.10;13.10;;;;;;;14.88;86.73;102282.41;5088745;28;20028;-75
2022/11/12 09:13:34;;;;;;;22.83;12.90;;;;;;;14.99;85.86;102269.81;5070684;28;20024;-75
2022/11/12 09:16:04;;;;;;;23.45;11.82;;;;;;;15.12;85.85;102261.63;5093334;28;20024;-74
2022/11/12 09:18:31;;;;;;;28.52;14.00;;;;;;;15.26;84.78;102270.47;5093385;28;20107;-75
2022/11/12 09:21:14;;;;;;;17.95;11.95;;;;;;;15.34;85.33;102263.59;5093073;28;20111;-75
2022/11/12 09:23:40;;;;;;;15.27;11.07;;;;;;;15.40;85.13;102264.00;5040471;28;20090;-76
2022/11/12 09:26:05;;;;;;;20.48;13.27;;;;;;;15.49;85.23;102257.06;5075654;28;20032;-76
2022/11/12 09:28:31;;;;;;;37.33;21.60;;;;;;;15.55;85.27;102264.72;5075735;28;20085;-76
2022/11/12 09:30:57;;;;;;;14.98;11.13;;;;;;;15.76;84.79;102265.78;5093550;28;20457;-77
2022/11/12 09:33:25;;;;;;;13.15;9.20;;;;;;;15.83;84.70;102256.19;5099221;28;20028;-76
2022/11/12 09:35:52;;;;;;;20.20;11.52;;;;;;;15.82;83.65;102232.75;5078812;28;20427;-76
2022/11/12 09:38:18;;;;;;;13.93;8.90;;;;;;;15.87;80.86;102249.53;5041395;28;20131;-76
2022/11/12 09:40:49;;;;;;;12.00;8.10;;;;;;;15.93;81.12;102240.91;5030578;28;20064;-77
2022/11/12 09:43:24;;;;;;;25.35;10.20;;;;;;;16.01;79.75;102249.34;5013567;28;20549;-78
2022/11/12 09:45:52;;;;;;;13.57;8.40;;;;;;;16.06;78.76;102243.53;5029687;28;20039;-77
2022/11/12 09:48:28;;;;;;;15.35;9.98;;;;;;;16.14;78.91;102255.53;5029806;28;20117;-78
2022/11/12 09:51:20;;;;;;;16.77;9.65;;;;;;;16.25;79.71;102258.25;5029583;28;20037;-76
2022/11/12 09:54:02;;;;;;;22.85;9.18;;;;;;;16.51;81.01;102250.72;5029688;28;20144;-77
2022/11/12 09:56:29;;;;;;;15.98;8.98;;;;;;;16.71;79.20;102252.75;5029772;28;20584;-78
2022/11/12 09:58:55;;;;;;;18.70;9.75;;;;;;;16.93;77.27;102265.44;5029298;28;20069;-76
2022/11/12 10:01:43;;;;;;;16.30;9.77;;;;;;;17.13;76.44;102261.06;5029330;28;20050;-76
2022/11/12 10:04:39;;;;;;;17.50;9.43;;;;;;;17.20;74.82;102268.59;5015756;28;20559;-76
2022/11/12 10:07:34;;;;;;;23.08;9.10;;;;;;;17.21;75.54;102256.75;5032059;28;20084;-75
2022/11/12 10:10:22;;;;;;;24.92;12.13;;;;;;;17.50;75.13;102259.72;5030478;28;20065;-77
2022/11/12 10:13:05;;;;;;;35.83;18.00;;;;;;;17.60;74.07;102259.81;5070245;28;20127;-76
2022/11/12 10:19:02;;;;;;;26.58;13.30;;;;;;;17.31;72.47;102252.22;5076530;28;20604;-76
2022/11/12 10:21:33;;;;;;;29.05;18.02;;;;;;;17.19;73.09;102266.84;5074966;28;20025;-76
2022/11/12 10:23:59;;;;;;;15.82;11.57;;;;;;;17.12;73.54;102276.53;5072349;28;20138;-75
2022/11/12 10:26:27;;;;;;;27.35;12.85;;;;;;;16.86;74.31;102247.91;5071258;28;20024;-75
2022/11/12 10:29:28;;;;;;;19.23;11.45;;;;;;;16.92;74.24;102263.69;5072942;28;20032;-74
2022/11/12 10:31:53;;;;;;;35.22;18.65;;;;;;;16.66;74.82;102240.53;4989951;28;20042;-75
2022/11/12 10:34:20;;;;;;;32.05;15.93;;;;;;;16.71;74.66;102279.03;4989829;28;20205;-72
2022/11/12 10:37:12;;;;;;;25.67;13.88;;;;;;;16.71;75.29;102277.19;4990073;28;20041;-73
2022/11/12 10:39:41;;;;;;;17.67;10.55;;;;;;;16.78;75.87;102283.00;5008456;28;20092;-75
2022/11/12 10:42:08;;;;;;;19.77;12.05;;;;;;;16.86;75.64;102270.50;4993198;28;20153;-73
2022/11/12 10:44:33;;;;;;;16.67;9.68;;;;;;;16.78;75.37;102247.69;4989980;28;20192;-73
2022/11/12 10:47:23;;;;;;;17.65;11.25;;;;;;;17.03;74.61;102274.53;4990760;28;20585;-72
2022/11/12 10:50:09;;;;;;;20.15;11.50;;;;;;;17.02;74.04;102278.28;4988569;28;20422;-74
2022/11/12 10:52:36;;;;;;;18.30;11.43;;;;;;;17.01;73.66;102273.81;4988640;28;20555;-75
2022/11/12 10:55:04;;;;;;;16.83;9.57;;;;;;;17.06;72.80;102270.75;4987980;28;20045;-74
2022/11/12 10:57:29;;;;;;;18.92;9.45;;;;;;;17.09;72.87;102267.75;4988454;28;20438;-73
2022/11/12 11:00:13;;;;;;;17.95;11.70;;;;;;;17.15;71.33;102268.13;4988086;28;20026;-74
2022/11/12 11:02:53;;;;;;;25.55;14.73;;;;;;;17.21;72.07;102270.34;4988609;28;20050;-74
2022/11/12 11:05:46;;;;;;;30.60;13.52;;;;;;;17.32;71.35;102267.56;4988781;28;20030;-78
2022/11/12 11:08:12;;;;;;;18.08;11.52;;;;;;;17.21;70.54;102266.75;5005382;28;20043;-76
2022/11/12 11:10:38;;;;;;;38.33;14.70;;;;;;;17.19;70.74;102274.16;5070243;28;20028;-74
2022/11/12 11:13:24;;;;;;;28.73;17.20;;;;;;;17.11;71.59;102269.34;5070496;28;20028;-74
2022/11/12 11:16:00;;;;;;;25.33;12.95;;;;;;;16.93;71.77;102280.88;5069487;28;20031;-75
2022/11/12 11:18:37;;;;;;;21.33;13.40;;;;;;;16.91;72.99;102272.00;5069752;28;20033;-74
2022/11/12 11:21:12;;;;;;;23.55;13.38;;;;;;;16.89;72.90;102263.94;5069636;28;20043;-75
2022/11/12 11:23:59;;;;;;;31.30;15.23;;;;;;;16.93;74.04;102265.44;5068596;28;20043;-74
2022/11/12 11:26:40;;;;;;;37.97;13.90;;;;;;;16.96;73.74;102269.75;5069220;28;20051;-75
2022/11/12 11:29:22;;;;;;;21.48;14.07;;;;;;;17.07;73.15;102286.91;5069737;28;20032;-74
2022/11/12 11:31:58;;;;;;;34.63;18.13;;;;;;;17.21;72.52;102281.22;5049607;28;20036;-76
2022/11/12 11:34:39;;;;;;;25.58;14.50;;;;;;;17.25;72.07;102279.94;5051039;28;20033;-77